Time;durP1;ratioP1;P1;durP2;ratioP2;P2;SDS_P1;SDS_P2;PMS_P1;PMS_P2;Temp;Humidity;BMP_temperature;BMP_pressure;BME280_temperature;BME280_humidity;BME280_pressure;Samples;Min_cycle;Max_cycle;Signal;HPM_P1;HPM_P2
2021/12/15 00:00:55;;;;;;;0.40;0.40;;;;;;;7.04;100.00;101956.47;4996330;28;20502;-84
2021/12/15 00:03:23;;;;;;;0.30;0.30;;;;;;;7.12;100.00;101958.88;5006742;28;20053;-85
2021/12/15 00:05:52;;;;;;;0.28;0.28;;;;;;;6.97;100.00;101946.56;5006322;28;20046;-84
2021/12/15 00:08:27;;;;;;;0.30;0.30;;;;;;;7.07;100.00;101956.84;5024769;28;20057;-85
2021/12/15 00:11:00;;;;;;;0.30;0.30;;;;;;;6.87;100.00;101910.22;5010415;28;20046;-84
2021/12/15 00:13:37;;;;;;;0.30;0.30;;;;;;;7.02;100.00;101932.34;4995425;28;20077;-83
2021/12/15 00:16:06;;;;;;;0.30;0.30;;;;;;;7.13;100.00;101928.88;4995769;28;20835;-84
2021/12/15 00:18:35;;;;;;;0.30;0.30;;;;;;;6.99;100.00;101919.25;4995398;28;20058;-84
2021/12/15 00:21:04;;;;;;;0.30;0.30;;;;;;;7.01;100.00;101936.09;4995411;28;20050;-83
2021/12/15 00:23:34;;;;;;;0.30;0.30;;;;;;;6.97;100.00;101935.72;4996164;28;20549;-83
2021/12/15 00:26:07;;;;;;;0.30;0.30;;;;;;;7.02;100.00;101936.94;4996243;28;20438;-83
2021/12/15 00:28:36;;;;;;;0.30;0.30;;;;;;;6.96;100.00;101935.94;4995836;28;20046;-84
2021/12/15 00:31:07;;;;;;;0.30;0.30;;;;;;;7.01;100.00;101932.56;4992014;28;20383;-84
2021/12/15 00:33:39;;;;;;;0.30;0.30;;;;;;;7.00;100.00;101929.00;5002243;28;20034;-84
2021/12/15 00:36:13;;;;;;;0.30;0.30;;;;;;;6.93;100.00;101933.69;4994442;28;20054;-84
2021/12/15 00:38:48;;;;;;;0.30;0.30;;;;;;;7.05;100.00;101942.72;4995652;28;20403;-83
2021/12/15 00:41:21;;;;;;;0.20;0.20;;;;;;;7.06;100.00;101940.84;5026956;28;20042;-84
2021/12/15 00:43:55;;;;;;;0.40;0.40;;;;;;;7.08;100.00;101946.84;4994320;28;20051;-83
2021/12/15 00:46:25;;;;;;;0.30;0.30;;;;;;;6.98;100.00;101947.38;4993643;28;20055;-83
2021/12/15 00:48:53;;;;;;;0.30;0.30;;;;;;;6.96;100.00;101946.75;5014453;28;20058;-83
2021/12/15 00:51:26;;;;;;;0.30;0.30;;;;;;;7.01;100.00;101946.09;4995736;28;20043;-84
2021/12/15 00:54:01;;;;;;;0.30;0.30;;;;;;;6.94;100.00;101941.56;4998553;28;20053;-83
2021/12/15 00:56:29;;;;;;;0.28;0.28;;;;;;;6.67;100.00;101886.94;5007393;28;20058;-84
2021/12/15 00:59:04;;;;;;;0.30;0.30;;;;;;;7.03;100.00;101938.56;5013749;28;20054;-85
2021/12/15 01:01:32;;;;;;;0.30;0.30;;;;;;;6.94;100.00;101941.56;5010471;28;20050;-85
2021/12/15 01:04:08;;;;;;;0.30;0.30;;;;;;;6.97;100.00;101943.84;4994421;28;20054;-83
2021/12/15 01:06:44;;;;;;;0.30;0.30;;;;;;;6.98;100.00;101942.78;4997120;28;20057;-84
2021/12/15 01:09:22;;;;;;;0.20;0.20;;;;;;;7.04;100.00;101945.63;4994251;28;20042;-84
2021/12/15 01:12:12;;;;;;;0.30;0.30;;;;;;;7.05;100.00;101950.00;4992078;28;20059;-85
2021/12/15 01:20:42;;;;;;;0.30;0.30;;;;;;;7.09;100.00;101948.50;4995552;28;20053;-83
2021/12/15 01:23:15;;;;;;;0.30;0.30;;;;;;;7.08;100.00;101939.53;4999223;28;20123;-83
2021/12/15 01:25:54;;;;;;;0.20;0.20;;;;;;;7.06;100.00;101949.78;4996610;28;20057;-84
2021/12/15 01:28:28;;;;;;;0.20;0.20;;;;;;;7.02;100.00;101939.63;4995086;28;20069;-84
2021/12/15 01:31:02;;;;;;;0.30;0.30;;;;;;;7.14;100.00;101940.53;4992758;28;20049;-83
2021/12/15 01:33:38;;;;;;;0.28;0.28;;;;;;;7.17;100.00;101940.09;4993574;28;20054;-83
2021/12/15 01:36:12;;;;;;;0.30;0.30;;;;;;;7.05;100.00;101948.13;4991045;28;20053;-84
2021/12/15 01:38:47;;;;;;;0.30;0.30;;;;;;;7.14;100.00;101946.78;4992232;28;20050;-83
2021/12/15 01:41:21;;;;;;;0.30;0.30;;;;;;;7.12;100.00;101959.69;4993959;28;20073;-84
2021/12/15 01:46:56;;;;;;;0.30;0.30;;;;;;;7.10;100.00;101961.81;4994934;28;20050;-83
2021/12/15 01:49:37;;;;;;;0.30;0.30;;;;;;;7.08;100.00;101957.69;4996971;28;20054;-83
2021/12/15 01:52:15;;;;;;;0.30;0.30;;;;;;;7.10;100.00;101945.56;5022539;28;20042;-84
2021/12/15 01:54:52;;;;;;;0.30;0.30;;;;;;;7.14;100.00;101941.38;4996422;28;20034;-84
2021/12/15 01:57:30;;;;;;;0.30;0.30;;;;;;;7.17;100.00;101959.03;4975355;28;20046;-84
2021/12/15 02:00:07;;;;;;;0.20;0.20;;;;;;;7.13;100.00;101955.13;4993940;28;20058;-84
2021/12/15 02:02:41;;;;;;;0.20;0.20;;;;;;;7.09;100.00;101941.22;4999030;28;20080;-83
2021/12/15 02:05:15;;;;;;;0.30;0.30;;;;;;;7.23;100.00;101949.19;4993360;28;20046;-84
2021/12/15 02:07:48;;;;;;;0.30;0.30;;;;;;;7.13;100.00;101938.88;4993043;28;20050;-84
2021/12/15 02:10:19;;;;;;;0.30;0.30;;;;;;;7.11;100.00;101947.25;4994394;28;20042;-84
2021/12/15 02:12:49;;;;;;;0.30;0.30;;;;;;;7.24;100.00;101956.25;4993742;28;20054;-84
2021/12/15 02:15:25;;;;;;;0.30;0.30;;;;;;;7.17;100.00;101934.69;4993078;28;20053;-84
2021/12/15 02:18:00;;;;;;;0.30;0.30;;;;;;;7.24;100.00;101942.72;4993190;28;20046;-84
2021/12/15 02:20:38;;;;;;;0.30;0.30;;;;;;;7.15;100.00;101945.72;4992244;28;20053;-83
2021/12/15 02:23:15;;;;;;;0.30;0.30;;;;;;;7.19;100.00;101945.28;4992758;28;20422;-84
2021/12/15 02:25:49;;;;;;;0.20;0.20;;;;;;;7.10;100.00;101942.88;4994147;28;20072;-83
2021/12/15 02:28:23;;;;;;;0.30;0.30;;;;;;;7.13;100.00;101947.81;4992086;28;20053;-84
2021/12/15 02:30:55;;;;;;;0.25;0.25;;;;;;;7.13;100.00;101945.13;4997066;28;20054;-83
2021/12/15 02:33:52;;;;;;;0.30;0.30;;;;;;;7.12;100.00;101943.44;5025331;28;20069;-83
2021/12/15 02:39:17;;;;;;;0.30;0.30;;;;;;;7.19;100.00;101937.16;5005535;28;20054;-83
2021/12/15 02:41:51;;;;;;;0.30;0.30;;;;;;;7.23;100.00;101932.94;4979225;28;20053;-83
2021/12/15 02:44:25;;;;;;;0.30;0.30;;;;;;;7.16;100.00;101938.44;4991281;28;20046;-84
2021/12/15 02:46:59;;;;;;;0.30;0.30;;;;;;;7.15;100.00;101934.06;4990175;28;20056;-84
2021/12/15 02:49:32;;;;;;;0.30;0.30;;;;;;;7.16;100.00;101943.84;4991869;28;20062;-83
2021/12/15 02:52:07;;;;;;;0.20;0.20;;;;;;;7.17;100.00;101934.69;5012249;28;20046;-84
2021/12/15 02:54:36;;;;;;;0.20;0.20;;;;;;;7.16;100.00;101935.72;5012947;28;20046;-83
2021/12/15 02:57:11;;;;;;;0.30;0.30;;;;;;;7.15;100.00;101931.34;5012904;28;20049;-84
2021/12/15 02:59:54;;;;;;;0.30;0.30;;;;;;;7.21;100.00;101935.03;5009794;28;20053;-83
2021/12/15 03:03:01;;;;;;;0.30;0.30;;;;;;;7.12;100.00;101913.69;5008796;28;20057;-83
2021/12/15 03:05:38;;;;;;;0.30;0.30;;;;;;;7.21;100.00;101927.75;4991930;28;20054;-83
2021/12/15 03:08:12;;;;;;;0.20;0.20;;;;;;;7.21;100.00;101932.31;4997584;28;20054;-83
2021/12/15 03:16:25;;;;;;;0.25;0.25;;;;;;;7.29;100.00;101922.03;4988305;28;20514;-83
2021/12/15 03:18:59;;;;;;;0.30;0.30;;;;;;;7.38;100.00;101916.31;4989555;28;20053;-84
2021/12/15 03:21:28;;;;;;;0.30;0.30;;;;;;;7.36;100.00;101912.97;4994966;28;20054;-84
2021/12/15 03:24:07;;;;;;;0.32;0.32;;;;;;;7.32;100.00;101912.63;4989557;28;20057;-83
2021/12/15 03:26:49;;;;;;;0.30;0.30;;;;;;;7.27;100.00;101932.25;4985307;28;20415;-83
2021/12/15 03:35:07;;;;;;;0.30;0.30;;;;;;;7.38;100.00;101943.38;4992784;28;20575;-85
2021/12/15 03:37:40;;;;;;;0.30;0.30;;;;;;;7.42;100.00;101942.69;4990400;28;20538;-84
2021/12/15 03:40:19;;;;;;;0.20;0.20;;;;;;;7.45;100.00;101939.53;4991780;28;20612;-83
2021/12/15 03:42:56;;;;;;;0.30;0.30;;;;;;;7.14;100.00;101908.06;4987151;28;20057;-83
2021/12/15 03:45:27;;;;;;;0.25;0.25;;;;;;;7.34;100.00;101936.78;4990450;28;20053;-83
2021/12/15 03:48:05;;;;;;;0.30;0.30;;;;;;;7.45;100.00;101942.22;4987132;28;20384;-83
2021/12/15 03:50:39;;;;;;;0.30;0.30;;;;;;;7.43;100.00;101944.34;4991032;28;20053;-83
2021/12/15 03:53:14;;;;;;;0.25;0.25;;;;;;;7.41;100.00;101935.63;4988770;28;20126;-82
2021/12/15 03:55:49;;;;;;;0.30;0.30;;;;;;;7.46;100.00;101938.47;4989194;28;20062;-83
2021/12/15 03:58:22;;;;;;;0.30;0.30;;;;;;;7.50;100.00;101941.56;4989079;28;20046;-84
2021/12/15 04:00:57;;;;;;;;;;;;;;;7.45;100.00;101936.00;4989551;28;20482;-84
2021/12/15 04:03:33;;;;;;;0.30;0.30;;;;;;;7.55;100.00;101938.97;4994743;28;19925;-83
2021/12/15 04:06:05;;;;;;;0.30;0.30;;;;;;;7.53;100.00;101938.41;5002482;28;20057;-83
2021/12/15 04:08:40;;;;;;;0.30;0.30;;;;;;;7.51;100.00;101931.56;4990875;28;20053;-83
2021/12/15 04:11:17;;;;;;;0.20;0.20;;;;;;;7.51;100.00;101928.84;4990428;28;20490;-83
2021/12/15 04:13:52;;;;;;;0.30;0.30;;;;;;;7.53;100.00;101938.41;4993445;28;20049;-84
2021/12/15 04:16:42;;;;;;;0.30;0.30;;;;;;;7.55;100.00;101936.28;4991549;28;20073;-83
2021/12/15 04:19:17;;;;;;;0.20;0.20;;;;;;;7.57;100.00;101942.31;4985975;28;20051;-84
2021/12/15 04:21:51;;;;;;;0.30;0.30;;;;;;;7.55;100.00;101940.88;4988745;28;20418;-84
2021/12/15 04:24:26;;;;;;;0.30;0.30;;;;;;;7.50;100.00;101947.00;4990059;28;20541;-84
2021/12/15 04:27:01;;;;;;;0.30;0.30;;;;;;;7.63;100.00;101946.78;4986216;28;20189;-83
2021/12/15 04:29:35;;;;;;;0.30;0.30;;;;;;;7.65;100.00;101944.69;4994227;28;20042;-83
2021/12/15 04:32:06;;;;;;;0.30;0.30;;;;;;;7.69;100.00;101950.47;4995935;28;20483;-85
2021/12/15 04:34:40;;;;;;;0.30;0.30;;;;;;;7.61;100.00;101948.06;4996471;28;20042;-84
2021/12/15 04:37:13;;;;;;;0.30;0.30;;;;;;;7.63;100.00;101949.50;4988988;28;20059;-83
2021/12/15 04:39:46;;;;;;;0.30;0.30;;;;;;;7.58;100.00;101953.97;4987851;28;20050;-83
2021/12/15 04:42:24;;;;;;;0.30;0.30;;;;;;;7.68;100.00;101950.69;4986860;28;20046;-83
2021/12/15 04:44:57;;;;;;;0.30;0.30;;;;;;;7.70;100.00;101954.84;4991581;28;20043;-83
2021/12/15 04:47:26;;;;;;;0.30;0.30;;;;;;;7.75;100.00;101959.59;4994113;28;20053;-84
2021/12/15 04:49:59;;;;;;;0.30;0.30;;;;;;;7.71;100.00;101959.22;4992989;28;20447;-84
2021/12/15 04:52:33;;;;;;;0.30;0.30;;;;;;;7.64;100.00;101959.28;4991976;28;20050;-83
2021/12/15 04:55:02;;;;;;;0.30;0.30;;;;;;;7.64;100.00;101947.63;5024799;28;20057;-84
2021/12/15 04:57:37;;;;;;;0.30;0.30;;;;;;;7.69;100.00;101950.47;4993112;28;20388;-83
2021/12/15 05:00:15;;;;;;;0.30;0.30;;;;;;;7.75;100.00;101948.75;4994001;28;20077;-83
2021/12/15 05:02:52;;;;;;;0.30;0.30;;;;;;;7.73;100.00;101959.78;5024767;28;20046;-83
2021/12/15 05:05:27;;;;;;;0.30;0.30;;;;;;;7.81;100.00;101950.53;5009563;28;20416;-83
2021/12/15 05:08:00;;;;;;;0.30;0.30;;;;;;;7.74;100.00;101950.63;4994184;28;20045;-83
2021/12/15 05:10:34;;;;;;;0.30;0.30;;;;;;;7.69;100.00;101945.03;4998387;28;20055;-83
2021/12/15 05:13:10;;;;;;;0.30;0.30;;;;;;;7.70;100.00;101935.88;4997923;28;20038;-83
2021/12/15 05:15:43;;;;;;;0.20;0.20;;;;;;;7.80;100.00;101946.16;4993326;28;20056;-83
2021/12/15 05:18:11;;;;;;;0.20;0.20;;;;;;;7.75;100.00;101952.28;4994162;28;20054;-84
2021/12/15 05:20:48;;;;;;;0.30;0.30;;;;;;;7.73;100.00;101948.13;4991269;28;20426;-83
2021/12/15 05:23:28;;;;;;;0.30;0.30;;;;;;;7.74;100.00;101947.91;4987511;28;20395;-83
2021/12/15 05:26:01;;;;;;;0.30;0.30;;;;;;;7.76;100.00;101950.38;4989248;28;20050;-83
2021/12/15 05:28:36;;;;;;;0.30;0.30;;;;;;;7.63;100.00;101946.78;4990407;28;20053;-84
2021/12/15 05:31:09;;;;;;;0.30;0.30;;;;;;;7.64;100.00;101947.63;4996239;28;20038;-84
2021/12/15 05:33:37;;;;;;;0.30;0.30;;;;;;;7.66;100.00;101948.22;4991335;28;20046;-83
2021/12/15 05:36:11;;;;;;;0.40;0.40;;;;;;;7.65;100.00;101955.53;4996456;28;20129;-83
2021/12/15 05:38:44;;;;;;;0.22;0.22;;;;;;;7.74;100.00;101956.03;4974228;28;20527;-83
2021/12/15 05:41:18;;;;;;;0.22;0.22;;;;;;;7.73;100.00;101957.09;4988199;28;20053;-83
2021/12/15 05:43:52;;;;;;;0.40;0.40;;;;;;;7.81;100.00;101959.47;4992725;28;20049;-84
2021/12/15 05:46:26;;;;;;;0.35;0.35;;;;;;;7.85;100.00;101959.84;4994165;28;20057;-83
2021/12/15 05:48:59;;;;;;;0.30;0.30;;;;;;;7.81;100.00;101955.94;5000387;28;20045;-83
2021/12/15 05:51:28;;;;;;;0.30;0.30;;;;;;;7.82;100.00;101966.56;4993475;28;20058;-83
2021/12/15 05:54:01;;;;;;;0.30;0.30;;;;;;;7.74;100.00;101956.03;4993563;28;20399;-83
2021/12/15 05:56:34;;;;;;;0.30;0.30;;;;;;;7.82;100.00;101950.28;4995066;28;20038;-83
2021/12/15 05:59:05;;;;;;;0.30;0.30;;;;;;;7.90;100.00;101957.28;4994458;28;20054;-83
2021/12/15 06:01:38;;;;;;;0.30;0.30;;;;;;;7.87;100.00;101954.19;4993805;28;20061;-83
2021/12/15 06:04:07;;;;;;;0.40;0.40;;;;;;;7.86;100.00;101961.50;5002968;28;20034;-83
2021/12/15 06:06:35;;;;;;;0.40;0.40;;;;;;;7.69;100.00;101942.34;4991254;28;20418;-82
2021/12/15 06:09:10;;;;;;;0.22;0.22;;;;;;;7.80;100.00;101946.16;4994606;28;20050;-83
2021/12/15 06:11:48;;;;;;;0.30;0.30;;;;;;;7.86;100.00;101963.38;4993009;28;20046;-83
2021/12/15 06:14:26;;;;;;;;;;;;;;;7.87;100.00;101952.34;5000205;28;20061;-82
2021/12/15 06:17:01;;;;;;;0.30;0.30;;;;;;;7.84;100.00;101963.63;4995478;28;19921;-83
2021/12/15 06:19:36;;;;;;;0.30;0.30;;;;;;;7.83;100.00;101961.97;4993606;28;20046;-83
2021/12/15 06:22:11;;;;;;;0.40;0.40;;;;;;;7.88;100.00;101972.13;4993941;28;20038;-83
2021/12/15 06:24:44;;;;;;;0.40;0.40;;;;;;;7.82;100.00;101958.44;5006615;28;20061;-83
2021/12/15 06:27:18;;;;;;;0.30;0.30;;;;;;;7.88;100.00;101964.81;4993835;28;20053;-83
2021/12/15 06:29:54;;;;;;;0.35;0.35;;;;;;;7.97;100.00;101973.47;4992783;28;20669;-83
2021/12/15 06:32:27;;;;;;;0.30;0.30;;;;;;;7.93;100.00;101972.28;4998013;28;20049;-84
2021/12/15 06:35:00;;;;;;;0.30;0.30;;;;;;;7.93;100.00;101962.25;4996266;28;20529;-83
2021/12/15 06:37:28;;;;;;;0.30;0.30;;;;;;;7.85;100.00;101962.56;4991423;28;20423;-83
2021/12/15 06:40:03;;;;;;;0.30;0.30;;;;;;;7.96;100.00;101977.22;4998716;28;20053;-83
2021/12/15 06:42:37;;;;;;;0.30;0.30;;;;;;;7.97;100.00;101979.69;4993135;28;20399;-82
2021/12/15 06:45:17;;;;;;;0.40;0.40;;;;;;;7.79;100.00;101966.22;4991895;28;20058;-83
2021/12/15 06:59:15;;;;;;;0.40;0.40;;;;;;;7.95;100.00;101989.94;4996519;28;20053;-83
2021/12/15 07:01:51;;;;;;;0.40;0.40;;;;;;;8.06;100.00;101985.63;4988041;28;20057;-83
2021/12/15 07:04:21;;;;;;;0.40;0.40;;;;;;;8.00;100.00;101995.50;4986840;28;20046;-82
2021/12/15 07:06:54;;;;;;;0.40;0.40;;;;;;;7.95;100.00;101989.94;4991902;28;20054;-86
2021/12/15 07:09:28;;;;;;;0.30;0.30;;;;;;;8.04;100.00;102001.31;4991263;28;20050;-84
2021/12/15 07:12:02;;;;;;;0.30;0.30;;;;;;;8.10;100.00;101999.53;4989333;28;20050;-83
2021/12/15 07:14:35;;;;;;;0.38;0.38;;;;;;;8.12;100.00;102006.41;4989816;28;20054;-83
2021/12/15 07:17:18;;;;;;;0.30;0.30;;;;;;;8.07;100.00;102008.97;4992733;28;20038;-82
2021/12/15 07:20:05;;;;;;;0.30;0.30;;;;;;;8.06;100.00;102011.91;4992895;28;20043;-84
2021/12/15 07:22:43;;;;;;;0.40;0.40;;;;;;;7.99;100.00;102001.97;4996572;28;20490;-84
2021/12/15 07:25:17;;;;;;;0.30;0.30;;;;;;;8.10;100.00;102007.69;4994117;28;20041;-82
2021/12/15 07:27:52;;;;;;;0.30;0.30;;;;;;;8.15;100.00;102021.38;4993888;28;20046;-84
2021/12/15 07:30:26;;;;;;;0.32;0.32;;;;;;;8.20;100.00;102016.06;4993171;28;20077;-83
2021/12/15 07:33:01;;;;;;;0.30;0.30;;;;;;;8.22;100.00;102013.16;4989540;28;20416;-83
2021/12/15 07:35:35;;;;;;;0.40;0.40;;;;;;;8.28;100.00;102014.94;4990293;28;20089;-84
2021/12/15 07:38:08;;;;;;;0.43;0.43;;;;;;;8.17;100.00;102017.38;4989596;28;20046;-83
2021/12/15 07:40:40;;;;;;;0.40;0.40;;;;;;;8.24;100.00;102016.44;4991683;28;20050;-83
2021/12/15 07:43:23;;;;;;;0.30;0.30;;;;;;;8.11;100.00;102017.47;4996626;28;20042;-83
2021/12/15 07:46:00;;;;;;;0.40;0.40;;;;;;;8.16;100.00;102017.59;4993061;28;20046;-83
2021/12/15 07:48:36;;;;;;;0.40;0.40;;;;;;;8.21;100.00;102027.75;4985263;28;20058;-83
2021/12/15 07:51:11;;;;;;;0.30;0.30;;;;;;;8.13;100.00;102024.31;4976469;28;20069;-84
2021/12/15 07:53:45;;;;;;;0.30;0.30;;;;;;;8.16;100.00;102026.56;4982984;28;20046;-84
2021/12/15 07:56:18;;;;;;;0.40;0.40;;;;;;;8.19;100.00;102028.00;4983209;28;20049;-84
2021/12/15 07:58:46;;;;;;;0.30;0.30;;;;;;;8.26;100.00;102033.31;4986601;28;20406;-83
2021/12/15 08:01:16;;;;;;;0.30;0.30;;;;;;;8.29;100.00;102033.69;4980013;28;20486;-84
2021/12/15 08:03:54;;;;;;;0.30;0.30;;;;;;;8.27;100.00;102033.09;4990671;28;20058;-83
2021/12/15 08:06:28;;;;;;;0.50;0.50;;;;;;;8.38;100.00;102036.88;4983545;28;20313;-83
2021/12/15 08:08:57;;;;;;;0.38;0.38;;;;;;;8.33;100.00;102032.16;4998335;28;20510;-83
2021/12/15 08:11:31;;;;;;;0.30;0.30;;;;;;;8.36;100.00;102036.31;4992060;28;20050;-83
2021/12/15 08:14:04;;;;;;;0.43;0.43;;;;;;;8.41;100.00;102049.16;4983016;28;20047;-85
2021/12/15 08:16:37;;;;;;;0.35;0.35;;;;;;;8.34;100.00;102041.97;4978746;28;20464;-84
2021/12/15 08:19:15;;;;;;;0.30;0.30;;;;;;;8.39;100.00;102054.00;5008260;28;20050;-83
2021/12/15 08:21:48;;;;;;;0.32;0.32;;;;;;;8.36;100.00;102052.56;4994765;28;20050;-83
2021/12/15 08:24:21;;;;;;;0.32;0.32;;;;;;;8.34;100.00;102055.53;4997365;28;20046;-84
2021/12/15 08:26:54;;;;;;;0.30;0.30;;;;;;;8.31;100.00;102049.72;4990286;28;20510;-83
2021/12/15 08:29:28;;;;;;;0.40;0.40;;;;;;;8.32;100.00;102049.47;4993641;28;20062;-83
2021/12/15 08:31:56;;;;;;;0.30;0.30;;;;;;;8.34;100.00;102058.22;4989668;28;20061;-84
2021/12/15 08:34:26;;;;;;;0.40;0.40;;;;;;;8.38;100.00;102053.16;4992796;28;20047;-83
2021/12/15 08:36:54;;;;;;;0.40;0.40;;;;;;;8.49;100.00;102057.00;4991093;28;20057;-84
2021/12/15 08:39:23;;;;;;;0.30;0.30;;;;;;;8.49;100.00;102059.72;4991007;28;20070;-83
2021/12/15 08:41:56;;;;;;;0.30;0.30;;;;;;;8.51;100.00;102050.28;4992842;28;20065;-84
2021/12/15 08:44:29;;;;;;;0.40;0.40;;;;;;;8.58;100.00;102054.78;4996683;28;20050;-83
2021/12/15 08:47:03;;;;;;;0.30;0.30;;;;;;;8.47;100.00;102059.13;4990304;28;20054;-83
2021/12/15 08:49:38;;;;;;;0.30;0.30;;;;;;;8.44;100.00;102041.38;4988323;28;20072;-85
2021/12/15 08:52:11;;;;;;;0.30;0.30;;;;;;;8.66;100.00;102055.28;4994362;28;20066;-84
2021/12/15 08:54:44;;;;;;;0.30;0.30;;;;;;;8.47;100.00;102051.81;4992159;28;20520;-86
2021/12/15 08:57:18;;;;;;;0.30;0.30;;;;;;;8.55;100.00;102063.38;4977220;28;20062;-84
2021/12/15 08:59:46;;;;;;;0.30;0.30;;;;;;;8.62;100.00;102064.94;4964146;28;20058;-86
2021/12/15 09:02:19;;;;;;;0.30;0.30;;;;;;;8.61;100.00;102059.75;4967818;28;20121;-86
2021/12/15 09:04:54;;;;;;;0.30;0.30;;;;;;;8.58;100.00;102060.22;4975539;28;20056;-86
2021/12/15 09:07:22;;;;;;;0.30;0.30;;;;;;;8.62;100.00;102047.84;4961344;28;20054;-87
2021/12/15 09:09:56;;;;;;;0.30;0.30;;;;;;;8.70;100.00;102063.78;4961441;28;20225;-85
2021/12/15 09:12:29;;;;;;;0.30;0.30;;;;;;;8.65;100.00;102064.47;4991495;28;20615;-85
2021/12/15 09:15:02;;;;;;;0.30;0.30;;;;;;;8.60;100.00;102052.66;4960874;28;20062;-86
2021/12/15 09:17:36;;;;;;;0.25;0.25;;;;;;;8.73;100.00;102066.03;4963880;28;20054;-85
2021/12/15 09:20:14;;;;;;;0.32;0.32;;;;;;;8.68;100.00;102052.31;4962173;28;20081;-86
2021/12/15 09:22:42;;;;;;;0.30;0.30;;;;;;;8.77;100.00;102069.09;4968824;28;20059;-87
2021/12/15 09:25:17;;;;;;;0.20;0.20;;;;;;;8.73;100.00;102067.91;4965683;28;20050;-85
2021/12/15 09:27:50;;;;;;;0.30;0.30;;;;;;;8.68;100.00;102065.91;4964842;28;20046;-86
2021/12/15 09:30:23;;;;;;;0.30;0.30;;;;;;;8.76;100.00;102071.00;4955257;28;20042;-86
2021/12/15 09:32:58;;;;;;;0.30;0.30;;;;;;;8.69;100.00;102067.56;4962641;28;20047;-85
2021/12/15 09:35:33;;;;;;;0.22;0.22;;;;;;;8.68;100.00;102066.72;4967823;28;20047;-83
2021/12/15 09:38:12;;;;;;;0.30;0.30;;;;;;;8.71;100.00;102060.00;4957948;28;20058;-85
2021/12/15 09:40:41;;;;;;;0.30;0.30;;;;;;;8.73;100.00;102057.03;4958846;28;20392;-85
2021/12/15 09:43:15;;;;;;;0.20;0.20;;;;;;;8.83;100.00;102060.03;4961138;28;20054;-84
2021/12/15 09:45:50;;;;;;;0.20;0.20;;;;;;;8.84;100.00;102061.69;4954955;28;20077;-85
2021/12/15 09:57:16;;;;;;;0.22;0.22;;;;;;;8.78;100.00;102068.03;4960742;28;20054;-86
2021/12/15 10:02:44;;;;;;;0.30;0.30;;;;;;;8.84;100.00;102075.25;4966099;28;20050;-85
2021/12/15 10:19:39;;;;;;;0.30;0.30;;;;;;;8.77;100.00;102066.38;4957498;28;20061;-85
2021/12/15 10:22:18;;;;;;;0.30;0.30;;;;;;;8.81;100.00;102089.28;4975650;28;20054;-86
2021/12/15 10:24:55;;;;;;;0.32;0.32;;;;;;;8.79;100.00;102061.56;4963089;28;20357;-87
2021/12/15 10:27:47;;;;;;;0.20;0.20;;;;;;;8.82;100.00;102071.94;4962048;28;20117;-86
2021/12/15 10:30:25;;;;;;;0.30;0.30;;;;;;;8.86;100.00;102081.28;4963685;28;20067;-85
2021/12/15 10:33:00;;;;;;;0.30;0.30;;;;;;;8.88;100.00;102078.31;4959194;28;20050;-86
2021/12/15 10:35:37;;;;;;;0.20;0.20;;;;;;;8.85;100.00;102074.19;4987300;28;20074;-86
2021/12/15 10:38:15;;;;;;;0.30;0.30;;;;;;;8.83;100.00;102071.69;4973998;28;20054;-86
2021/12/15 10:40:54;;;;;;;0.30;0.30;;;;;;;8.93;100.00;102075.72;4962208;28;20976;-86
2021/12/15 10:43:25;;;;;;;0.30;0.30;;;;;;;8.93;100.00;102076.56;4960191;28;20097;-86
2021/12/15 10:46:01;;;;;;;0.30;0.30;;;;;;;8.89;100.00;102074.53;4959236;28;20593;-85
2021/12/15 10:48:45;;;;;;;0.30;0.30;;;;;;;8.87;100.00;102076.69;4960872;28;20068;-87
2021/12/15 10:51:36;;;;;;;0.30;0.30;;;;;;;8.89;100.00;102083.50;4959153;28;20062;-86
2021/12/15 10:54:07;;;;;;;0.28;0.28;;;;;;;8.79;100.00;102053.41;4957421;28;20061;-86
2021/12/15 10:56:50;;;;;;;0.20;0.20;;;;;;;8.87;100.00;102071.25;4959872;28;20053;-85
2021/12/15 10:59:18;;;;;;;0.30;0.30;;;;;;;8.95;100.00;102069.00;4960185;28;20069;-85
2021/12/15 11:01:52;;;;;;;0.20;0.20;;;;;;;8.96;100.00;102062.53;4957100;28;20058;-88
2021/12/15 11:04:38;;;;;;;0.30;0.30;;;;;;;8.91;100.00;102056.13;4960029;28;20076;-86
2021/12/15 11:07:15;;;;;;;0.30;0.30;;;;;;;8.98;100.00;102067.72;4974844;28;20053;-86
2021/12/15 11:09:53;;;;;;;0.25;0.25;;;;;;;9.02;100.00;102066.19;4965603;28;20673;-84
2021/12/15 11:12:27;;;;;;;0.30;0.30;;;;;;;9.05;100.00;102076.56;4959003;28;20050;-84
2021/12/15 11:14:58;;;;;;;0.30;0.30;;;;;;;9.06;100.00;102071.97;4961177;28;20053;-88
2021/12/15 11:17:34;;;;;;;0.20;0.20;;;;;;;9.08;100.00;102070.66;4966679;28;20065;-83
2021/12/15 11:20:15;;;;;;;0.30;0.30;;;;;;;9.08;100.00;102078.81;4972974;28;20074;-84
2021/12/15 11:22:55;;;;;;;0.20;0.20;;;;;;;8.96;100.00;102069.81;4968600;28;20050;-85
2021/12/15 11:25:35;;;;;;;0.30;0.30;;;;;;;8.95;100.00;102062.72;4963458;28;20053;-85
2021/12/15 11:28:09;;;;;;;0.22;0.22;;;;;;;9.04;100.00;102066.75;4966854;28;20409;-85
2021/12/15 11:30:42;;;;;;;0.30;0.30;;;;;;;9.05;100.00;102079.28;4961934;28;20723;-85
2021/12/15 11:33:14;;;;;;;0.30;0.30;;;;;;;9.05;100.00;102078.47;4962081;28;20054;-87
2021/12/15 11:35:46;;;;;;;0.25;0.25;;;;;;;9.06;100.00;102083.66;4958365;28;20478;-86
2021/12/15 11:38:18;;;;;;;0.30;0.30;;;;;;;9.07;100.00;102079.06;4960705;28;20061;-86
2021/12/15 11:41:04;;;;;;;0.30;0.30;;;;;;;8.93;100.00;102075.72;4965457;28;20050;-85
2021/12/15 11:43:44;;;;;;;0.22;0.22;;;;;;;9.06;100.00;102083.66;4967129;28;20519;-85
2021/12/15 11:46:26;;;;;;;0.20;0.20;;;;;;;9.04;100.00;102083.06;4966746;28;20061;-85
2021/12/15 11:48:57;;;;;;;0.30;0.30;;;;;;;8.92;100.00;102076.78;4960538;28;20503;-85
2021/12/15 11:51:33;;;;;;;0.20;0.20;;;;;;;8.95;100.00;102079.88;4963660;28;20141;-85
2021/12/15 11:54:16;;;;;;;0.20;0.20;;;;;;;8.99;100.00;102077.50;4967365;28;20090;-86
2021/12/15 11:56:51;;;;;;;0.30;0.30;;;;;;;8.97;100.00;102076.91;4962093;28;20463;-85
2021/12/15 11:59:28;;;;;;;0.20;0.20;;;;;;;8.94;100.00;102058.38;4961669;28;20110;-86
2021/12/15 12:02:06;;;;;;;0.20;0.20;;;;;;;9.02;100.00;102079.78;4973723;28;20054;-84
2021/12/15 12:04:40;;;;;;;;;;;;;;;8.97;100.00;102079.63;4968922;28;20058;-84
2021/12/15 12:07:23;;;;;;;0.30;0.30;;;;;;;8.94;100.00;102070.06;4961805;28;20507;-86
2021/12/15 12:10:00;;;;;;;0.30;0.30;;;;;;;8.91;100.00;102072.41;4967522;28;20051;-84
2021/12/15 12:12:35;;;;;;;0.20;0.20;;;;;;;9.01;100.00;102081.63;4961883;28;20429;-85
2021/12/15 12:15:14;;;;;;;0.25;0.25;;;;;;;8.85;100.00;102074.19;4961438;28;20054;-85
2021/12/15 12:17:49;;;;;;;0.20;0.20;;;;;;;8.71;100.00;102051.84;4962878;28;20763;-87
2021/12/15 12:20:25;;;;;;;0.30;0.30;;;;;;;8.97;100.00;102071.50;4963692;28;20418;-85
2021/12/15 12:22:55;;;;;;;0.20;0.20;;;;;;;8.91;100.00;102069.69;4962739;28;20050;-85
2021/12/15 12:25:33;;;;;;;0.20;0.20;;;;;;;8.97;100.00;102060.63;4970814;28;20054;-83
2021/12/15 12:28:01;;;;;;;0.20;0.20;;;;;;;8.86;100.00;102059.56;4978746;28;20055;-84
2021/12/15 12:30:39;;;;;;;0.20;0.20;;;;;;;8.77;100.00;102048.22;4967271;28;20561;-83
2021/12/15 12:33:15;;;;;;;0.30;0.30;;;;;;;8.87;100.00;102073.97;4966363;28;20050;-85
2021/12/15 12:35:54;;;;;;;0.20;0.20;;;;;;;8.90;100.00;102066.16;4956956;28;20391;-84
2021/12/15 12:38:29;;;;;;;0.20;0.20;;;;;;;8.91;100.00;102070.53;4957829;28;20050;-84
2021/12/15 12:41:07;;;;;;;0.20;0.20;;;;;;;8.77;100.00;102058.22;4963817;28;20454;-83
2021/12/15 12:43:42;;;;;;;0.30;0.30;;;;;;;8.98;100.00;102054.16;4960730;28;20507;-84
2021/12/15 12:46:23;;;;;;;0.22;0.22;;;;;;;8.90;100.00;102076.22;4964391;28;20546;-84
2021/12/15 12:49:26;;;;;;;0.30;0.30;;;;;;;8.87;100.00;102069.34;4964594;28;20058;-83
2021/12/15 12:59:22;;;;;;;0.20;0.20;;;;;;;8.78;100.00;102066.16;4965395;28;20054;-85
2021/12/15 13:01:06;;;;;;;0.30;0.30;;;;;;;8.80;100.00;102064.03;4968547;28;20519;-85
2021/12/15 13:03:39;;;;;;;0.30;0.30;;;;;;;8.82;100.00;102066.50;4968306;28;20058;-86
2021/12/15 13:06:13;;;;;;;;;;;;;;;8.83;100.00;102070.88;4967917;28;20058;-85
2021/12/15 13:08:49;;;;;;;0.20;0.20;;;;;;;8.80;100.00;102069.47;4961244;28;20567;-86